sensor_id;sensor_type;location;lat;lon;timestamp;P1;durP1;ratioP1;P2;durP2;ratioP2
57463;SDS011;43309;44.418;26.122;2023-03-14T00:01:12;12.80;;;6.80;;
57463;SDS011;43309;44.418;26.122;2023-03-14T00:03:41;9.00;;;6.30;;
57463;SDS011;43309;44.418;26.122;2023-03-14T00:06:08;15.50;;;7.20;;
57463;SDS011;43309;44.418;26.122;2023-03-14T00:08:35;13.70;;;7.80;;
57463;SDS011;43309;44.418;26.122;2023-03-14T00:11:16;12.90;;;7.20;;
57463;SDS011;43309;44.418;26.122;2023-03-14T00:13:47;13.10;;;6.80;;
57463;SDS011;43309;44.418;26.122;2023-03-14T00:16:15;15.60;;;7.20;;
57463;SDS011;43309;44.418;26.122;2023-03-14T00:18:41;15.70;;;8.70;;
57463;SDS011;43309;44.418;26.122;2023-03-14T00:21:08;13.80;;;8.50;;
57463;SDS011;43309;44.418;26.122;2023-03-14T00:23:36;17.30;;;8.60;;
57463;SDS011;43309;44.418;26.122;2023-03-14T00:26:07;17.80;;;8.60;;
57463;SDS011;43309;44.418;26.122;2023-03-14T00:28:35;12.80;;;7.30;;
57463;SDS011;43309;44.418;26.122;2023-03-14T00:31:02;14.90;;;7.10;;
57463;SDS011;43309;44.418;26.122;2023-03-14T00:33:30;14.60;;;6.70;;
57463;SDS011;43309;44.418;26.122;2023-03-14T00:35:57;12.00;;;6.90;;
57463;SDS011;43309;44.418;26.122;2023-03-14T00:38:32;19.90;;;8.30;;
57463;SDS011;43309;44.418;26.122;2023-03-14T00:40:59;16.30;;;8.70;;
57463;SDS011;43309;44.418;26.122;2023-03-14T00:43:29;13.80;;;8.30;;
57463;SDS011;43309;44.418;26.122;2023-03-14T00:45:56;20.30;;;9.50;;
57463;SDS011;43309;44.418;26.122;2023-03-14T00:48:23;21.00;;;11.40;;
57463;SDS011;43309;44.418;26.122;2023-03-14T00:50:50;19.50;;;11.00;;
57463;SDS011;43309;44.418;26.122;2023-03-14T00:53:16;16.90;;;8.60;;
57463;SDS011;43309;44.418;26.122;2023-03-14T00:55:44;21.70;;;11.20;;
57463;SDS011;43309;44.418;26.122;2023-03-14T00:58:11;29.20;;;15.50;;
57463;SDS011;43309;44.418;26.122;2023-03-14T01:00:39;28.10;;;14.30;;
57463;SDS011;43309;44.418;26.122;2023-03-14T01:03:07;31.60;;;17.70;;
57463;SDS011;43309;44.418;26.122;2023-03-14T01:05:34;33.00;;;16.70;;
57463;SDS011;43309;44.418;26.122;2023-03-14T01:08:01;31.10;;;16.80;;
57463;SDS011;43309;44.418;26.122;2023-03-14T01:10:34;29.80;;;15.60;;
57463;SDS011;43309;44.418;26.122;2023-03-14T01:13:03;29.50;;;15.10;;
57463;SDS011;43309;44.418;26.122;2023-03-14T01:15:31;29.10;;;15.30;;
57463;SDS011;43309;44.418;26.122;2023-03-14T01:17:59;29.20;;;14.40;;
57463;SDS011;43309;44.418;26.122;2023-03-14T01:20:25;22.80;;;12.10;;
57463;SDS011;43309;44.418;26.122;2023-03-14T01:22:52;23.40;;;11.90;;
57463;SDS011;43309;44.418;26.122;2023-03-14T01:25:19;20.00;;;10.50;;
57463;SDS011;43309;44.418;26.122;2023-03-14T01:27:45;22.70;;;9.50;;
57463;SDS011;43309;44.418;26.122;2023-03-14T01:30:12;17.90;;;9.20;;
57463;SDS011;43309;44.418;26.122;2023-03-14T01:32:39;17.60;;;9.60;;
57463;SDS011;43309;44.418;26.122;2023-03-14T01:35:06;15.90;;;9.00;;
57463;SDS011;43309;44.418;26.122;2023-03-14T01:37:33;18.20;;;9.30;;
57463;SDS011;43309;44.418;26.122;2023-03-14T01:39:59;16.40;;;8.40;;
57463;SDS011;43309;44.418;26.122;2023-03-14T01:42:25;13.50;;;7.00;;
57463;SDS011;43309;44.418;26.122;2023-03-14T01:44:54;13.50;;;8.00;;
57463;SDS011;43309;44.418;26.122;2023-03-14T01:47:22;15.30;;;7.70;;
57463;SDS011;43309;44.418;26.122;2023-03-14T01:49:59;13.30;;;6.80;;
57463;SDS011;43309;44.418;26.122;2023-03-14T01:52:33;12.50;;;7.30;;
57463;SDS011;43309;44.418;26.122;2023-03-14T01:55:12;12.80;;;6.80;;
57463;SDS011;43309;44.418;26.122;2023-03-14T01:57:44;16.50;;;7.50;;
57463;SDS011;43309;44.418;26.122;2023-03-14T02:00:15;14.30;;;7.50;;
57463;SDS011;43309;44.418;26.122;2023-03-14T02:02:47;13.60;;;7.40;;
57463;SDS011;43309;44.418;26.122;2023-03-14T02:05:35;13.50;;;7.70;;
57463;SDS011;43309;44.418;26.122;2023-03-14T02:08:04;15.40;;;7.50;;
57463;SDS011;43309;44.418;26.122;2023-03-14T02:10:41;14.40;;;7.50;;
57463;SDS011;43309;44.418;26.122;2023-03-14T02:13:10;14.70;;;7.80;;
57463;SDS011;43309;44.418;26.122;2023-03-14T02:15:37;17.50;;;7.70;;
57463;SDS011;43309;44.418;26.122;2023-03-14T02:18:05;15.20;;;8.00;;
57463;SDS011;43309;44.418;26.122;2023-03-14T02:23:04;13.20;;;7.40;;
57463;SDS011;43309;44.418;26.122;2023-03-14T02:28:22;14.20;;;7.80;;
57463;SDS011;43309;44.418;26.122;2023-03-14T02:30:48;16.20;;;7.40;;
57463;SDS011;43309;44.418;26.122;2023-03-14T02:33:16;18.10;;;9.30;;
57463;SDS011;43309;44.418;26.122;2023-03-14T02:36:02;12.50;;;7.30;;
57463;SDS011;43309;44.418;26.122;2023-03-14T02:38:44;17.20;;;9.00;;
57463;SDS011;43309;44.418;26.122;2023-03-14T02:41:14;12.90;;;7.00;;
57463;SDS011;43309;44.418;26.122;2023-03-14T02:43:41;14.90;;;7.40;;
57463;SDS011;43309;44.418;26.122;2023-03-14T02:46:08;12.80;;;7.40;;
57463;SDS011;43309;44.418;26.122;2023-03-14T02:48:42;19.50;;;9.20;;
57463;SDS011;43309;44.418;26.122;2023-03-14T02:51:11;15.60;;;8.00;;
57463;SDS011;43309;44.418;26.122;2023-03-14T02:53:39;20.40;;;7.30;;
57463;SDS011;43309;44.418;26.122;2023-03-14T02:56:07;13.60;;;6.80;;
57463;SDS011;43309;44.418;26.122;2023-03-14T02:58:35;13.80;;;6.70;;
57463;SDS011;43309;44.418;26.122;2023-03-14T03:01:02;12.30;;;5.50;;
57463;SDS011;43309;44.418;26.122;2023-03-14T03:03:28;12.30;;;5.90;;
57463;SDS011;43309;44.418;26.122;2023-03-14T03:05:55;11.20;;;5.40;;
57463;SDS011;43309;44.418;26.122;2023-03-14T03:08:29;11.50;;;5.80;;
57463;SDS011;43309;44.418;26.122;2023-03-14T03:10:56;10.60;;;5.10;;
57463;SDS011;43309;44.418;26.122;2023-03-14T03:13:24;10.30;;;4.80;;
57463;SDS011;43309;44.418;26.122;2023-03-14T03:15:51;11.60;;;5.50;;
57463;SDS011;43309;44.418;26.122;2023-03-14T03:18:17;11.40;;;5.40;;
57463;SDS011;43309;44.418;26.122;2023-03-14T03:20:44;9.60;;;4.80;;
57463;SDS011;43309;44.418;26.122;2023-03-14T03:23:12;9.90;;;4.90;;
57463;SDS011;43309;44.418;26.122;2023-03-14T03:25:38;11.30;;;5.40;;
57463;SDS011;43309;44.418;26.122;2023-03-14T03:28:05;10.10;;;4.80;;
57463;SDS011;43309;44.418;26.122;2023-03-14T03:30:37;9.10;;;5.10;;
57463;SDS011;43309;44.418;26.122;2023-03-14T03:33:05;10.60;;;5.80;;
57463;SDS011;43309;44.418;26.122;2023-03-14T03:35:31;8.40;;;4.80;;
57463;SDS011;43309;44.418;26.122;2023-03-14T03:37:58;11.40;;;5.60;;
57463;SDS011;43309;44.418;26.122;2023-03-14T03:40:25;10.90;;;5.30;;
57463;SDS011;43309;44.418;26.122;2023-03-14T03:42:58;9.80;;;5.30;;
57463;SDS011;43309;44.418;26.122;2023-03-14T03:45:25;10.20;;;4.90;;
57463;SDS011;43309;44.418;26.122;2023-03-14T03:47:51;10.50;;;5.50;;
57463;SDS011;43309;44.418;26.122;2023-03-14T03:50:18;10.00;;;4.90;;
57463;SDS011;43309;44.418;26.122;2023-03-14T03:52:45;9.80;;;4.80;;
57463;SDS011;43309;44.418;26.122;2023-03-14T03:55:11;6.80;;;4.60;;
57463;SDS011;43309;44.418;26.122;2023-03-14T03:57:37;8.60;;;4.20;;
57463;SDS011;43309;44.418;26.122;2023-03-14T04:00:05;7.40;;;4.40;;
57463;SDS011;43309;44.418;26.122;2023-03-14T04:02:33;9.70;;;4.80;;
57463;SDS011;43309;44.418;26.122;2023-03-14T04:04:59;9.50;;;4.80;;
57463;SDS011;43309;44.418;26.122;2023-03-14T04:07:26;8.60;;;4.70;;
57463;SDS011;43309;44.418;26.122;2023-03-14T04:09:53;10.60;;;5.20;;
57463;SDS011;43309;44.418;26.122;2023-03-14T04:12:19;10.40;;;6.60;;
57463;SDS011;43309;44.418;26.122;2023-03-14T04:14:46;9.40;;;6.00;;
57463;SDS011;43309;44.418;26.122;2023-03-14T04:17:13;16.10;;;5.10;;
57463;SDS011;43309;44.418;26.122;2023-03-14T04:19:39;10.40;;;5.30;;
57463;SDS011;43309;44.418;26.122;2023-03-14T04:22:06;9.30;;;4.70;;
57463;SDS011;43309;44.418;26.122;2023-03-14T04:24:33;8.10;;;4.60;;
57463;SDS011;43309;44.418;26.122;2023-03-14T04:27:00;11.00;;;4.60;;
57463;SDS011;43309;44.418;26.122;2023-03-14T04:29:26;10.60;;;5.30;;
57463;SDS011;43309;44.418;26.122;2023-03-14T04:31:53;9.50;;;5.00;;
57463;SDS011;43309;44.418;26.122;2023-03-14T04:34:26;14.00;;;5.00;;
57463;SDS011;43309;44.418;26.122;2023-03-14T04:36:53;9.60;;;4.90;;
57463;SDS011;43309;44.418;26.122;2023-03-14T04:39:19;11.30;;;5.50;;
57463;SDS011;43309;44.418;26.122;2023-03-14T04:41:53;8.20;;;4.70;;
57463;SDS011;43309;44.418;26.122;2023-03-14T04:44:26;10.10;;;5.10;;
57463;SDS011;43309;44.418;26.122;2023-03-14T04:46:53;13.80;;;5.10;;
57463;SDS011;43309;44.418;26.122;2023-03-14T04:49:19;12.70;;;5.50;;
57463;SDS011;43309;44.418;26.122;2023-03-14T04:51:46;11.50;;;5.50;;
57463;SDS011;43309;44.418;26.122;2023-03-14T04:54:12;15.10;;;6.20;;
57463;SDS011;43309;44.418;26.122;2023-03-14T04:56:39;12.80;;;6.20;;
57463;SDS011;43309;44.418;26.122;2023-03-14T04:59:05;15.00;;;5.50;;
57463;SDS011;43309;44.418;26.122;2023-03-14T05:01:32;11.90;;;6.40;;
57463;SDS011;43309;44.418;26.122;2023-03-14T05:03:59;10.20;;;5.50;;
57463;SDS011;43309;44.418;26.122;2023-03-14T05:06:25;12.30;;;5.40;;
57463;SDS011;43309;44.418;26.122;2023-03-14T05:08:59;9.80;;;5.30;;
57463;SDS011;43309;44.418;26.122;2023-03-14T05:11:26;12.80;;;5.70;;
57463;SDS011;43309;44.418;26.122;2023-03-14T05:13:52;8.90;;;5.30;;
57463;SDS011;43309;44.418;26.122;2023-03-14T05:16:19;10.60;;;6.00;;
57463;SDS011;43309;44.418;26.122;2023-03-14T05:18:46;10.00;;;5.50;;
57463;SDS011;43309;44.418;26.122;2023-03-14T05:21:12;16.30;;;7.60;;
57463;SDS011;43309;44.418;26.122;2023-03-14T05:23:39;19.00;;;7.90;;
57463;SDS011;43309;44.418;26.122;2023-03-14T05:26:05;19.60;;;7.70;;
57463;SDS011;43309;44.418;26.122;2023-03-14T05:28:32;14.40;;;6.50;;
57463;SDS011;43309;44.418;26.122;2023-03-14T05:30:59;13.20;;;5.80;;
57463;SDS011;43309;44.418;26.122;2023-03-14T05:33:26;15.00;;;6.70;;
57463;SDS011;43309;44.418;26.122;2023-03-14T05:35:52;12.30;;;6.50;;
57463;SDS011;43309;44.418;26.122;2023-03-14T05:38:19;9.40;;;5.80;;
57463;SDS011;43309;44.418;26.122;2023-03-14T05:40:45;12.70;;;6.20;;
57463;SDS011;43309;44.418;26.122;2023-03-14T05:43:12;11.40;;;6.10;;
57463;SDS011;43309;44.418;26.122;2023-03-14T05:45:40;14.10;;;5.70;;
57463;SDS011;43309;44.418;26.122;2023-03-14T05:48:07;9.40;;;6.30;;
57463;SDS011;43309;44.418;26.122;2023-03-14T05:50:33;7.70;;;6.10;;
57463;SDS011;43309;44.418;26.122;2023-03-14T05:53:00;10.30;;;6.20;;
57463;SDS011;43309;44.418;26.122;2023-03-14T05:55:26;12.40;;;6.20;;
57463;SDS011;43309;44.418;26.122;2023-03-14T05:57:53;19.50;;;6.50;;
57463;SDS011;43309;44.418;26.122;2023-03-14T06:00:20;14.20;;;6.10;;
57463;SDS011;43309;44.418;26.122;2023-03-14T06:02:47;12.00;;;5.40;;
57463;SDS011;43309;44.418;26.122;2023-03-14T06:05:20;13.80;;;5.30;;
57463;SDS011;43309;44.418;26.122;2023-03-14T06:07:46;9.80;;;4.70;;
57463;SDS011;43309;44.418;26.122;2023-03-14T06:10:13;13.30;;;4.50;;
57463;SDS011;43309;44.418;26.122;2023-03-14T06:12:40;13.30;;;4.40;;
57463;SDS011;43309;44.418;26.122;2023-03-14T06:15:07;11.10;;;4.30;;
57463;SDS011;43309;44.418;26.122;2023-03-14T06:17:34;11.50;;;4.70;;
57463;SDS011;43309;44.418;26.122;2023-03-14T06:20:01;11.20;;;4.40;;
57463;SDS011;43309;44.418;26.122;2023-03-14T06:22:27;10.20;;;4.60;;
57463;SDS011;43309;44.418;26.122;2023-03-14T06:24:54;11.70;;;4.60;;
57463;SDS011;43309;44.418;26.122;2023-03-14T06:27:20;11.10;;;4.60;;
57463;SDS011;43309;44.418;26.122;2023-03-14T06:29:47;11.30;;;4.60;;
57463;SDS011;43309;44.418;26.122;2023-03-14T06:32:14;11.80;;;4.50;;
57463;SDS011;43309;44.418;26.122;2023-03-14T06:34:40;7.90;;;4.20;;
57463;SDS011;43309;44.418;26.122;2023-03-14T06:37:07;9.80;;;3.90;;
57463;SDS011;43309;44.418;26.122;2023-03-14T06:39:40;9.10;;;4.60;;
57463;SDS011;43309;44.418;26.122;2023-03-14T06:42:06;13.20;;;4.40;;
57463;SDS011;43309;44.418;26.122;2023-03-14T06:44:33;8.50;;;4.30;;
57463;SDS011;43309;44.418;26.122;2023-03-14T06:47:00;5.60;;;3.80;;
57463;SDS011;43309;44.418;26.122;2023-03-14T06:49:27;9.50;;;4.00;;
57463;SDS011;43309;44.418;26.122;2023-03-14T06:51:53;7.90;;;3.90;;
57463;SDS011;43309;44.418;26.122;2023-03-14T06:54:20;11.70;;;4.40;;
57463;SDS011;43309;44.418;26.122;2023-03-14T06:56:53;7.40;;;3.90;;
57463;SDS011;43309;44.418;26.122;2023-03-14T06:59:20;9.50;;;3.80;;
57463;SDS011;43309;44.418;26.122;2023-03-14T07:01:46;6.50;;;3.80;;
57463;SDS011;43309;44.418;26.122;2023-03-14T07:04:14;14.50;;;4.40;;
57463;SDS011;43309;44.418;26.122;2023-03-14T07:06:41;10.20;;;4.20;;
57463;SDS011;43309;44.418;26.122;2023-03-14T07:09:10;8.80;;;4.20;;
57463;SDS011;43309;44.418;26.122;2023-03-14T07:11:37;10.30;;;4.50;;
57463;SDS011;43309;44.418;26.122;2023-03-14T07:14:04;19.70;;;5.20;;
57463;SDS011;43309;44.418;26.122;2023-03-14T07:16:30;12.40;;;5.20;;
57463;SDS011;43309;44.418;26.122;2023-03-14T07:18:59;6.20;;;4.50;;
57463;SDS011;43309;44.418;26.122;2023-03-14T07:21:26;11.30;;;5.90;;
57463;SDS011;43309;44.418;26.122;2023-03-14T07:23:53;11.60;;;5.70;;
57463;SDS011;43309;44.418;26.122;2023-03-14T07:26:20;11.50;;;6.10;;
57463;SDS011;43309;44.418;26.122;2023-03-14T07:28:47;14.70;;;6.80;;
57463;SDS011;43309;44.418;26.122;2023-03-14T07:31:13;11.70;;;6.40;;
57463;SDS011;43309;44.418;26.122;2023-03-14T07:33:40;12.00;;;6.60;;
57463;SDS011;43309;44.418;26.122;2023-03-14T07:36:06;16.10;;;6.60;;
57463;SDS011;43309;44.418;26.122;2023-03-14T07:38:33;11.80;;;6.70;;
57463;SDS011;43309;44.418;26.122;2023-03-14T07:41:04;12.20;;;6.70;;
57463;SDS011;43309;44.418;26.122;2023-03-14T07:43:31;13.40;;;6.90;;
57463;SDS011;43309;44.418;26.122;2023-03-14T07:45:58;14.10;;;7.30;;
57463;SDS011;43309;44.418;26.122;2023-03-14T07:48:25;14.90;;;7.90;;
57463;SDS011;43309;44.418;26.122;2023-03-14T07:50:53;17.30;;;6.50;;
57463;SDS011;43309;44.418;26.122;2023-03-14T07:53:21;13.30;;;6.90;;
57463;SDS011;43309;44.418;26.122;2023-03-14T07:55:49;16.30;;;7.00;;
57463;SDS011;43309;44.418;26.122;2023-03-14T07:58:23;16.70;;;7.10;;
57463;SDS011;43309;44.418;26.122;2023-03-14T08:00:50;13.20;;;7.00;;
57463;SDS011;43309;44.418;26.122;2023-03-14T08:03:17;16.80;;;7.60;;
57463;SDS011;43309;44.418;26.122;2023-03-14T08:05:46;21.20;;;10.90;;
57463;SDS011;43309;44.418;26.122;2023-03-14T08:08:14;12.10;;;7.00;;
57463;SDS011;43309;44.418;26.122;2023-03-14T08:10:47;13.70;;;6.20;;
57463;SDS011;43309;44.418;26.122;2023-03-14T08:13:14;14.90;;;6.60;;
57463;SDS011;43309;44.418;26.122;2023-03-14T08:15:40;16.30;;;5.90;;
57463;SDS011;43309;44.418;26.122;2023-03-14T08:18:07;14.80;;;6.60;;
57463;SDS011;43309;44.418;26.122;2023-03-14T08:20:33;14.50;;;7.10;;
57463;SDS011;43309;44.418;26.122;2023-03-14T08:23:02;16.90;;;6.80;;
57463;SDS011;43309;44.418;26.122;2023-03-14T08:25:35;13.40;;;6.80;;
57463;SDS011;43309;44.418;26.122;2023-03-14T08:28:01;11.60;;;6.80;;
57463;SDS011;43309;44.418;26.122;2023-03-14T08:30:28;13.80;;;7.00;;
57463;SDS011;43309;44.418;26.122;2023-03-14T08:32:58;15.30;;;6.90;;
57463;SDS011;43309;44.418;26.122;2023-03-14T08:35:26;16.90;;;7.00;;
57463;SDS011;43309;44.418;26.122;2023-03-14T08:37:53;17.80;;;6.50;;
57463;SDS011;43309;44.418;26.122;2023-03-14T08:40:19;23.30;;;10.10;;
57463;SDS011;43309;44.418;26.122;2023-03-14T08:42:46;14.60;;;7.80;;
57463;SDS011;43309;44.418;26.122;2023-03-14T08:45:13;16.30;;;7.60;;
57463;SDS011;43309;44.418;26.122;2023-03-14T08:47:41;19.00;;;7.50;;
57463;SDS011;43309;44.418;26.122;2023-03-14T08:50:08;13.90;;;7.50;;
57463;SDS011;43309;44.418;26.122;2023-03-14T08:52:35;11.10;;;7.20;;
57463;SDS011;43309;44.418;26.122;2023-03-14T08:55:04;14.50;;;7.60;;
57463;SDS011;43309;44.418;26.122;2023-03-14T08:57:31;10.50;;;7.50;;
57463;SDS011;43309;44.418;26.122;2023-03-14T09:00:04;16.10;;;6.70;;
57463;SDS011;43309;44.418;26.122;2023-03-14T09:02:43;12.50;;;5.90;;
57463;SDS011;43309;44.418;26.122;2023-03-14T09:05:10;13.90;;;6.30;;
57463;SDS011;43309;44.418;26.122;2023-03-14T09:07:38;12.20;;;6.80;;
57463;SDS011;43309;44.418;26.122;2023-03-14T09:10:06;10.60;;;6.10;;
57463;SDS011;43309;44.418;26.122;2023-03-14T09:12:33;11.40;;;7.20;;
57463;SDS011;43309;44.418;26.122;2023-03-14T09:15:00;6.90;;;4.90;;
57463;SDS011;43309;44.418;26.122;2023-03-14T09:17:26;11.50;;;5.20;;
57463;SDS011;43309;44.418;26.122;2023-03-14T09:19:53;17.20;;;5.30;;
57463;SDS011;43309;44.418;26.122;2023-03-14T09:22:20;9.50;;;5.80;;
57463;SDS011;43309;44.418;26.122;2023-03-14T09:24:47;11.10;;;4.80;;
57463;SDS011;43309;44.418;26.122;2023-03-14T09:27:14;9.20;;;4.60;;
57463;SDS011;43309;44.418;26.122;2023-03-14T09:29:41;12.60;;;5.20;;
57463;SDS011;43309;44.418;26.122;2023-03-14T09:32:07;10.00;;;5.60;;
57463;SDS011;43309;44.418;26.122;2023-03-14T09:34:34;11.50;;;5.00;;
57463;SDS011;43309;44.418;26.122;2023-03-14T09:37:01;8.10;;;5.10;;
57463;SDS011;43309;44.418;26.122;2023-03-14T09:39:27;10.10;;;4.00;;
57463;SDS011;43309;44.418;26.122;2023-03-14T09:42:02;12.20;;;5.30;;
57463;SDS011;43309;44.418;26.122;2023-03-14T09:44:35;8.90;;;5.00;;
57463;SDS011;43309;44.418;26.122;2023-03-14T09:47:05;7.50;;;3.70;;
57463;SDS011;43309;44.418;26.122;2023-03-14T09:49:34;9.80;;;4.30;;
57463;SDS011;43309;44.418;26.122;2023-03-14T09:52:05;12.80;;;5.20;;
57463;SDS011;43309;44.418;26.122;2023-03-14T09:54:49;6.90;;;3.60;;
57463;SDS011;43309;44.418;26.122;2023-03-14T09:57:25;3.70;;;2.20;;
57463;SDS011;43309;44.418;26.122;2023-03-14T10:00:15;8.80;;;2.90;;
57463;SDS011;43309;44.418;26.122;2023-03-14T10:02:45;8.80;;;3.00;;
57463;SDS011;43309;44.418;26.122;2023-03-14T10:05:18;7.00;;;3.50;;
57463;SDS011;43309;44.418;26.122;2023-03-14T10:07:46;4.80;;;2.50;;
57463;SDS011;43309;44.418;26.122;2023-03-14T10:10:15;8.30;;;2.40;;
57463;SDS011;43309;44.418;26.122;2023-03-14T10:15:13;6.50;;;2.60;;
57463;SDS011;43309;44.418;26.122;2023-03-14T10:17:47;7.00;;;2.50;;
57463;SDS011;43309;44.418;26.122;2023-03-14T10:23:00;9.00;;;2.20;;
57463;SDS011;43309;44.418;26.122;2023-03-14T10:25:28;4.00;;;2.20;;
57463;SDS011;43309;44.418;26.122;2023-03-14T10:28:26;2.10;;;1.90;;
57463;SDS011;43309;44.418;26.122;2023-03-14T10:30:54;4.90;;;2.00;;
57463;SDS011;43309;44.418;26.122;2023-03-14T10:33:27;6.00;;;2.10;;
57463;SDS011;43309;44.418;26.122;2023-03-14T10:35:59;5.50;;;2.20;;
57463;SDS011;43309;44.418;26.122;2023-03-14T10:38:34;7.40;;;2.30;;
57463;SDS011;43309;44.418;26.122;2023-03-14T10:41:13;8.20;;;2.30;;
57463;SDS011;43309;44.418;26.122;2023-03-14T10:43:53;4.70;;;2.30;;
57463;SDS011;43309;44.418;26.122;2023-03-14T10:46:20;5.60;;;2.30;;
57463;SDS011;43309;44.418;26.122;2023-03-14T10:48:50;4.30;;;2.10;;
57463;SDS011;43309;44.418;26.122;2023-03-14T10:56:25;6.90;;;2.20;;
57463;SDS011;43309;44.418;26.122;2023-03-14T10:58:54;4.60;;;2.70;;
57463;SDS011;43309;44.418;26.122;2023-03-14T11:04:13;5.20;;;2.00;;
57463;SDS011;43309;44.418;26.122;2023-03-14T11:07:20;5.90;;;3.00;;
57463;SDS011;43309;44.418;26.122;2023-03-14T11:09:56;3.90;;;2.00;;
57463;SDS011;43309;44.418;26.122;2023-03-14T11:12:34;9.90;;;2.00;;
57463;SDS011;43309;44.418;26.122;2023-03-14T11:20:59;2.90;;;1.60;;
57463;SDS011;43309;44.418;26.122;2023-03-14T11:28:48;4.30;;;1.80;;
57463;SDS011;43309;44.418;26.122;2023-03-14T11:31:33;3.00;;;1.80;;
57463;SDS011;43309;44.418;26.122;2023-03-14T11:37:06;4.70;;;2.10;;
57463;SDS011;43309;44.418;26.122;2023-03-14T11:39:39;3.50;;;1.50;;
57463;SDS011;43309;44.418;26.122;2023-03-14T11:42:15;7.50;;;1.90;;
57463;SDS011;43309;44.418;26.122;2023-03-14T11:44:46;6.30;;;1.80;;
57463;SDS011;43309;44.418;26.122;2023-03-14T11:47:37;5.20;;;2.00;;
57463;SDS011;43309;44.418;26.122;2023-03-14T11:50:23;3.80;;;1.40;;
57463;SDS011;43309;44.418;26.122;2023-03-14T11:52:54;5.60;;;1.50;;
57463;SDS011;43309;44.418;26.122;2023-03-14T11:55:36;3.60;;;1.60;;
57463;SDS011;43309;44.418;26.122;2023-03-14T11:58:23;10.30;;;2.80;;
57463;SDS011;43309;44.418;26.122;2023-03-14T12:00:54;2.60;;;1.70;;
57463;SDS011;43309;44.418;26.122;2023-03-14T12:03:32;6.50;;;1.80;;
57463;SDS011;43309;44.418;26.122;2023-03-14T12:08:51;4.60;;;1.50;;
57463;SDS011;43309;44.418;26.122;2023-03-14T12:11:35;2.30;;;1.40;;
57463;SDS011;43309;44.418;26.122;2023-03-14T12:14:20;2.90;;;1.40;;
57463;SDS011;43309;44.418;26.122;2023-03-14T12:16:52;7.30;;;3.20;;
57463;SDS011;43309;44.418;26.122;2023-03-14T12:19:26;5.10;;;1.20;;
57463;SDS011;43309;44.418;26.122;2023-03-14T12:21:57;4.90;;;2.00;;
57463;SDS011;43309;44.418;26.122;2023-03-14T12:24:31;3.40;;;1.60;;
57463;SDS011;43309;44.418;26.122;2023-03-14T12:27:02;4.00;;;1.40;;
57463;SDS011;43309;44.418;26.122;2023-03-14T12:29:30;7.70;;;2.20;;
57463;SDS011;43309;44.418;26.122;2023-03-14T12:34:30;8.40;;;1.80;;
57463;SDS011;43309;44.418;26.122;2023-03-14T12:37:23;4.30;;;1.40;;
57463;SDS011;43309;44.418;26.122;2023-03-14T12:40:13;2.60;;;1.30;;
57463;SDS011;43309;44.418;26.122;2023-03-14T12:45:34;2.80;;;1.10;;
57463;SDS011;43309;44.418;26.122;2023-03-14T12:48:05;5.50;;;1.50;;
57463;SDS011;43309;44.418;26.122;2023-03-14T12:50:41;3.80;;;1.30;;
57463;SDS011;43309;44.418;26.122;2023-03-14T12:55:57;6.20;;;1.10;;
57463;SDS011;43309;44.418;26.122;2023-03-14T12:58:42;0.90;;;0.80;;
57463;SDS011;43309;44.418;26.122;2023-03-14T13:01:18;2.40;;;1.40;;
57463;SDS011;43309;44.418;26.122;2023-03-14T13:03:47;3.50;;;1.10;;
57463;SDS011;43309;44.418;26.122;2023-03-14T13:06:54;2.70;;;1.20;;
57463;SDS011;43309;44.418;26.122;2023-03-14T13:12:10;3.80;;;1.40;;
57463;SDS011;43309;44.418;26.122;2023-03-14T13:14:49;2.90;;;1.00;;
57463;SDS011;43309;44.418;26.122;2023-03-14T13:17:29;2.90;;;1.20;;
57463;SDS011;43309;44.418;26.122;2023-03-14T13:20:00;1.90;;;1.00;;
57463;SDS011;43309;44.418;26.122;2023-03-14T13:22:49;2.00;;;0.80;;
57463;SDS011;43309;44.418;26.122;2023-03-14T13:25:17;10.60;;;1.40;;
57463;SDS011;43309;44.418;26.122;2023-03-14T13:27:48;10.00;;;1.30;;
57463;SDS011;43309;44.418;26.122;2023-03-14T13:30:21;3.20;;;1.00;;
57463;SDS011;43309;44.418;26.122;2023-03-14T13:32:49;1.90;;;1.50;;
57463;SDS011;43309;44.418;26.122;2023-03-14T13:35:26;2.30;;;0.80;;
57463;SDS011;43309;44.418;26.122;2023-03-14T13:37:56;0.70;;;0.60;;
57463;SDS011;43309;44.418;26.122;2023-03-14T13:40:33;1.80;;;0.70;;
57463;SDS011;43309;44.418;26.122;2023-03-14T13:43:44;3.50;;;0.70;;
57463;SDS011;43309;44.418;26.122;2023-03-14T13:45:55;2.20;;;0.80;;
57463;SDS011;43309;44.418;26.122;2023-03-14T13:48:28;1.90;;;0.90;;
57463;SDS011;43309;44.418;26.122;2023-03-14T13:51:01;2.00;;;0.80;;
57463;SDS011;43309;44.418;26.122;2023-03-14T13:53:31;3.00;;;0.90;;
57463;SDS011;43309;44.418;26.122;2023-03-14T13:56:03;3.90;;;1.40;;
57463;SDS011;43309;44.418;26.122;2023-03-14T13:58:31;7.20;;;2.90;;
57463;SDS011;43309;44.418;26.122;2023-03-14T14:01:00;5.50;;;1.30;;
57463;SDS011;43309;44.418;26.122;2023-03-14T14:03:31;1.50;;;0.80;;
57463;SDS011;43309;44.418;26.122;2023-03-14T14:06:00;1.90;;;0.80;;
57463;SDS011;43309;44.418;26.122;2023-03-14T14:08:27;1.50;;;1.10;;
57463;SDS011;43309;44.418;26.122;2023-03-14T14:10:57;3.50;;;0.90;;
57463;SDS011;43309;44.418;26.122;2023-03-14T14:13:34;0.70;;;0.60;;
57463;SDS011;43309;44.418;26.122;2023-03-14T14:16:16;3.20;;;0.90;;
57463;SDS011;43309;44.418;26.122;2023-03-14T14:18:48;18.80;;;10.50;;
57463;SDS011;43309;44.418;26.122;2023-03-14T14:21:15;2.90;;;1.40;;
57463;SDS011;43309;44.418;26.122;2023-03-14T14:23:43;1.60;;;0.80;;
57463;SDS011;43309;44.418;26.122;2023-03-14T14:26:13;2.60;;;0.90;;
57463;SDS011;43309;44.418;26.122;2023-03-14T14:28:44;4.60;;;1.30;;
57463;SDS011;43309;44.418;26.122;2023-03-14T14:33:43;1.80;;;0.70;;
57463;SDS011;43309;44.418;26.122;2023-03-14T14:36:19;1.50;;;0.80;;
57463;SDS011;43309;44.418;26.122;2023-03-14T14:41:40;1.40;;;0.70;;
57463;SDS011;43309;44.418;26.122;2023-03-14T14:44:10;0.70;;;0.70;;
57463;SDS011;43309;44.418;26.122;2023-03-14T14:46:39;3.00;;;0.70;;
57463;SDS011;43309;44.418;26.122;2023-03-14T14:49:12;1.30;;;1.10;;
57463;SDS011;43309;44.418;26.122;2023-03-14T14:51:42;1.00;;;0.90;;
57463;SDS011;43309;44.418;26.122;2023-03-14T14:54:12;4.20;;;0.80;;
57463;SDS011;43309;44.418;26.122;2023-03-14T14:56:49;6.80;;;0.80;;
57463;SDS011;43309;44.418;26.122;2023-03-14T14:59:27;1.50;;;0.60;;
57463;SDS011;43309;44.418;26.122;2023-03-14T15:01:59;4.70;;;0.80;;
57463;SDS011;43309;44.418;26.122;2023-03-14T15:04:30;8.40;;;2.20;;
57463;SDS011;43309;44.418;26.122;2023-03-14T15:06:58;2.80;;;0.60;;
57463;SDS011;43309;44.418;26.122;2023-03-14T15:09:26;0.70;;;0.70;;
57463;SDS011;43309;44.418;26.122;2023-03-14T15:11:53;2.50;;;0.90;;
57463;SDS011;43309;44.418;26.122;2023-03-14T15:14:27;2.50;;;0.80;;
57463;SDS011;43309;44.418;26.122;2023-03-14T15:17:10;3.30;;;1.10;;
57463;SDS011;43309;44.418;26.122;2023-03-14T15:19:38;2.90;;;1.00;;
57463;SDS011;43309;44.418;26.122;2023-03-14T15:22:09;9.30;;;1.30;;
57463;SDS011;43309;44.418;26.122;2023-03-14T15:24:40;7.20;;;1.10;;
57463;SDS011;43309;44.418;26.122;2023-03-14T15:27:12;5.60;;;1.00;;
57463;SDS011;43309;44.418;26.122;2023-03-14T15:29:41;21.90;;;1.70;;
57463;SDS011;43309;44.418;26.122;2023-03-14T15:32:12;2.50;;;1.30;;
57463;SDS011;43309;44.418;26.122;2023-03-14T15:37:14;3.80;;;1.10;;